Terminal Aerodrome Forecast
Issued by NWS Wilmington, OH

Home | Current Version | Previous Version | Text Only | Print | Product List | Glossary On
Versions: 1 2 3 4 5 6 7 8 9 10 11 12 13 14 15 16 17 18
000
FTUS41 KILN 270500
TAFDAY
TAF
KDAY 270539Z 2706/2806 18006KT P6SM SCT045 BKN200
     FM271200 19012KT P6SM OVC060
     FM271900 20013KT P6SM VCSH OVC020
      TEMPO 2800/2802 5SM -SHRA OVC015
     FM280200 25009KT P6SM VCSH OVC018
      TEMPO 2802/2806 5SM -SHRA OVC009=

USA.gov is the U.S. government's official web portal to all federal, state and local government web resources and services.